Long Island Mac Arthur Airport
KISP : now visible

Airfield :











YOU CAN JOIN US ON...

 
LOGIN :

Register | Disclaimer

   EN    FR    IT 

 









Legend :    VFR   Marginal VFR   IFR   Intensive IFR   Very Intensive IFR
Visi :
Ceiling :
>= 8 km
>= 3000ft
5 to 8 km
1000 to 3000 ft
1500m to 5 km
500 to 1000 ft
800 to 1500m
200 to 500 ft
< 800m
< 200 ft
Symbols :   Thunderstorms  Fog  Heavy snow  Heavy precipitations  Wind > 20 kt






- Airport Elevation : 99 ft
- IATA code : ISP


KISP - Long Island Mac Arthur

CURRENT METAR :
  • 042022Z 20036G60KT 10SM SCT025 SCT120 SCT250 26/19 A2964 RMK AO2 PK WND 21060/2020 PRESRR T02610194

EXPIRED METARs :
  • 041956Z 20026G51KT 2 1/2SM BKN025 OVC250 24/20 A2961 RMK AO2 PK WND 17055/1901 SFC VIS 7 RAE47 SLP023 P0000 T02390200
  • 041856Z 16038G52KT 2 1/2SM -RA FEW012 BKN025 OVC080 24/20 A2960 RMK AO2 PK WND 18057/1836 SFC VIS 3 RAE12B44 PRESFR SLP023 P0002 T02390200
  • 041830Z 16031G53KT 3SM HZ FEW012 BKN025 OVC080 25/21 A2962 RMK AO2 PK WND 18053/1822 SFC VIS 5 RAE12 PRESFR P0002 T02500206
  • 041756Z 15025G37KT 2SM R06/3500VP6000FT +RA BR FEW009 BKN014 OVC027 26/24 A2965 RMK AO2 PK WND 15047/1736 PRESFR SLP038 P0011 60012 T02610244 10267 20250 58079
  • 041738Z 15034G47KT 1/2SM R06/P6000FT -RA BR BKN009 BKN014 OVC027 25/24 A2968 RMK AO2 PK WND 15047/1736 SFC VIS 3 P0011 T02500244

TAF KISP
Valid from the 04 at 20:00 until the 05 at 18:00 UTC


042009Z 0420/0518 21034G50KT P6SM SCT007 OVC025 WS020/15070KT
TEMPO 0420/0422 SCT025 BKN250
FM042200 23027G39KT P6SM SCT020 OVC040 WS020/19055KT
FM050000 23017G28KT P6SM OVC040
FM050400 23010KT P6SM SCT035 SCT250
FM050900 24008KT P6SM SCT250
KZBW FIR / North America



MET'MAP, your aeronautical weather chart ! - Copyright ORBIFLY December 2007 - Disclaimer

ORBIFLY MET'MAP TEAM :

Programming & Development : Alexandra Zaïnal
Concept & original design : Baudouin d'Aumeries
Assistance for programming : Marc-Olivier Méhu
Technical & hardware support : Manuel Goepfert

Contact : metmap@orbifly.com




SOURCES & CREDITS :

   NOAA       Earth
Advisory